Ana Sayfa
METAR-TAF:

METAR-TAF

Havaalanları :

Roma-Fiumicino, İtalya

Fiumicino

Enlem: 41-48N, Boylam: 012-14E, yükseklik: 2 m

Güncel hava durumu gözlemi

Rapor saat 02:20 UTC de 38 dakika önce yapıldı.
Rüzgar değişken yönden 3 kt
Sıcaklık 12°C
Nem 100%
Basınç 1018 hPa
Görüş mesafesi 10 km veya daha fazla
1500 m altında bulut yok ve kümülonimbus yok

METAR: LIRF 240220Z VRB03KT CAVOK 12/12 Q1018 NOSIG

Saat: 04:58 (02:58 UTC)

Tahmin

Rapor saat 23:00 UTC de 3 saat ve 58 dakika önce yapıldı.
Ayın 24'si saat 00 UTC'den ayın 25'si saat 06 UTC'ye kadar geçerli Tahmin
Rüzgar değişken yönden 5 kt
Görüş mesafesi: 4000 m
Pus
Geçici
ayın 24'si saat 02 UTC'den ayın 24'si saat 06 UTC'ye kadar
Görüş mesafesi: 0800 m
sis kütleleri
Dönüşüyor
ayın 24'si saat 08 UTC'den ayın 24'si saat 10 UTC'ye kadar
Rüzgar güneybatıdan 12 kt
Görüş mesafesi: 8000 m

TAF: LIRF 232300Z 2400/2506 VRB05KT 4000 BR TEMPO 2402/2406 0800 BCFG BECMG 2408/2410 22012KT 8000

4.000'den fazla havaalanı için hava durumu gözlemleri ve tahminleri (METAR ve TAF raporları).

Kullanılabilir istasyonlar harita üzerinde sarı ve kırmızı noktalarla gösterilir.

İstasyonun adını görmek için fareyi noktanın üzerinde gezdirin.

Sonrasında hava gözlem ve tahminlerini görmek için tıklayın.

Haritayı değiştirmek için: yaklaştırmak için siyah artı işaretli yeşil düğmeye ve uzaklaştırmak için de eksi işaretli düğmeye hızla tıklayın; bitişik haritalar için yeşil okları kullanın.


METAR-TAF: